Time;durP1;ratioP1;P1;durP2;ratioP2;P2;SDS_P1;SDS_P2;PMS_P1;PMS_P2;Temp;Humidity;BMP_temperature;BMP_pressure;BME280_temperature;BME280_humidity;BME280_pressure;Samples;Min_cycle;Max_cycle;Signal;HPM_P1;HPM_P2
2023/07/28 00:00:09;;;;;;;5.22;2.33;;;17.70;99.90;;;;;;5083017;28;20653;-58
2023/07/28 00:02:37;;;;;;;2.47;2.17;;;17.60;99.90;;;;;;5081270;28;20235;-60
2023/07/28 00:05:05;;;;;;;3.30;2.53;;;17.60;99.90;;;;;;5087177;28;20550;-61
2023/07/28 00:07:35;;;;;;;3.35;2.55;;;17.60;99.90;;;;;;5087599;28;20737;-61
2023/07/28 00:10:03;;;;;;;4.05;2.70;;;17.60;99.90;;;;;;5079949;28;20228;-60
2023/07/28 00:12:31;;;;;;;6.35;2.30;;;17.60;99.90;;;;;;5079815;28;20220;-60
2023/07/28 00:14:59;;;;;;;2.53;2.40;;;17.60;99.90;;;;;;5086266;28;20292;-60
2023/07/28 00:17:29;;;;;;;6.55;2.10;;;17.60;99.90;;;;;;5088253;28;20251;-60
2023/07/28 00:19:57;;;;;;;7.07;2.45;;;17.60;99.90;;;;;;5066481;28;20253;-61
2023/07/28 00:22:24;;;;;;;2.55;2.40;;;17.60;99.90;;;;;;5080958;28;20256;-61
2023/07/28 00:24:52;;;;;;;5.32;2.85;;;17.60;99.90;;;;;;5084865;28;20231;-60
2023/07/28 00:27:20;;;;;;;2.90;2.30;;;17.60;99.90;;;;;;5088831;28;20683;-60
2023/07/28 00:29:48;;;;;;;6.68;2.67;;;17.60;99.90;;;;;;5077649;28;20200;-60
2023/07/28 00:32:16;;;;;;;2.40;2.30;;;17.60;99.90;;;;;;5082941;28;20707;-60
2023/07/28 00:34:45;;;;;;;3.30;2.72;;;17.60;99.90;;;;;;5083889;28;20204;-59
2023/07/28 00:37:13;;;;;;;4.65;2.65;;;17.60;99.90;;;;;;5090084;28;20292;-60
2023/07/28 00:39:41;;;;;;;5.15;3.05;;;17.60;99.90;;;;;;5076346;28;20231;-61
2023/07/28 00:42:09;;;;;;;3.05;2.83;;;17.60;99.90;;;;;;5082669;28;20307;-60
2023/07/28 00:44:37;;;;;;;7.90;3.75;;;17.60;99.90;;;;;;5076975;28;20197;-60
2023/07/28 00:47:05;;;;;;;3.35;3.10;;;17.60;99.90;;;;;;5091336;28;20235;-60
2023/07/28 00:49:33;;;;;;;4.53;3.33;;;17.60;99.90;;;;;;5075266;28;20283;-60
2023/07/28 00:52:02;;;;;;;5.00;3.22;;;17.60;99.90;;;;;;5082975;28;20212;-60
2023/07/28 00:54:30;;;;;;;7.18;3.90;;;17.60;99.90;;;;;;5082997;28;20196;-60
2023/07/28 00:56:58;;;;;;;5.55;3.40;;;17.60;99.90;;;;;;5091220;28;20292;-60
2023/07/28 00:59:26;;;;;;;5.63;3.20;;;17.60;99.90;;;;;;5074338;28;20632;-60
2023/07/28 01:01:53;;;;;;;7.63;3.15;;;17.60;99.90;;;;;;5084058;28;20312;-60
2023/07/28 01:04:22;;;;;;;5.25;3.30;;;17.60;99.90;;;;;;5081028;28;20604;-60
2023/07/28 01:06:53;;;;;;;3.78;3.45;;;17.60;99.90;;;;;;5084359;28;20200;-61
2023/07/28 01:09:24;;;;;;;4.72;3.65;;;17.60;99.90;;;;;;5088788;28;20253;-60
2023/07/28 01:11:55;;;;;;;5.30;3.25;;;17.60;99.90;;;;;;5076382;28;20292;-61
2023/07/28 01:14:23;;;;;;;5.40;4.15;;;17.60;99.90;;;;;;5082703;28;20283;-60
2023/07/28 01:16:51;;;;;;;4.25;3.85;;;17.60;99.90;;;;;;5090886;28;20591;-60
2023/07/28 01:19:19;;;;;;;4.65;3.63;;;17.60;99.90;;;;;;5087390;28;20246;-60
2023/07/28 01:21:49;;;;;;;6.25;4.85;;;17.60;99.90;;;;;;5083486;28;20224;-61
2023/07/28 01:24:21;;;;;;;4.43;4.03;;;17.60;99.90;;;;;;5085515;28;20224;-60
2023/07/28 01:26:50;;;;;;;5.70;4.18;;;17.60;99.90;;;;;;5094616;28;20695;-61
2023/07/28 01:29:19;;;;;;;6.68;4.05;;;17.60;99.90;;;;;;5084677;28;20200;-61
2023/07/28 01:31:48;;;;;;;4.25;4.05;;;17.60;99.90;;;;;;5094542;28;20200;-61
2023/07/28 01:34:15;;;;;;;5.10;4.38;;;17.60;99.90;;;;;;5084378;28;20225;-61
2023/07/28 01:36:43;;;;;;;8.52;3.95;;;17.60;99.90;;;;;;5088166;28;20448;-61
2023/07/28 01:39:11;;;;;;;4.97;3.83;;;17.60;99.90;;;;;;5083499;28;20251;-61
2023/07/28 01:41:43;;;;;;;4.30;3.83;;;17.50;99.90;;;;;;5078239;28;20201;-61
2023/07/28 01:44:12;;;;;;;4.40;4.10;;;17.60;99.90;;;;;;5084468;28;20716;-60
2023/07/28 01:46:40;;;;;;;7.45;3.90;;;17.50;99.90;;;;;;5087635;28;20196;-59
2023/07/28 01:49:08;;;;;;;4.93;4.15;;;17.50;99.90;;;;;;5082634;28;20212;-60
2023/07/28 01:51:40;;;;;;;4.40;4.00;;;17.50;99.90;;;;;;5086461;28;20204;-61
2023/07/28 01:54:08;;;;;;;7.90;3.47;;;17.50;99.90;;;;;;5077887;28;20274;-58
2023/07/28 01:56:35;;;;;;;5.55;3.80;;;17.50;99.90;;;;;;5086573;28;20253;-58
2023/07/28 01:59:04;;;;;;;6.53;4.00;;;17.50;99.90;;;;;;5082065;28;20734;-59
2023/07/28 02:01:34;;;;;;;4.57;3.28;;;17.50;99.90;;;;;;5082818;28;20247;-58
2023/07/28 02:04:02;;;;;;;4.38;3.70;;;17.50;99.90;;;;;;5081768;28;20247;-60
2023/07/28 02:06:31;;;;;;;4.43;3.63;;;17.50;99.90;;;;;;5081705;28;20300;-57
2023/07/28 02:08:59;;;;;;;8.95;3.97;;;17.50;99.90;;;;;;5080104;28;20204;-58
2023/07/28 02:11:27;;;;;;;4.18;3.72;;;17.50;99.90;;;;;;5083310;28;20288;-59
2023/07/28 02:13:55;;;;;;;3.53;3.33;;;17.50;99.90;;;;;;5080531;28;20714;-59
2023/07/28 02:16:23;;;;;;;4.53;3.75;;;17.50;99.90;;;;;;5082501;28;20748;-61
2023/07/28 02:18:52;;;;;;;4.85;3.95;;;17.50;99.90;;;;;;5080551;28;20208;-61
2023/07/28 02:21:20;;;;;;;4.03;3.63;;;17.50;99.90;;;;;;5084220;28;20256;-58
2023/07/28 02:23:48;;;;;;;3.80;3.50;;;17.50;99.90;;;;;;5079215;28;20273;-57
2023/07/28 02:26:16;;;;;;;4.80;3.45;;;17.50;99.90;;;;;;5083273;28;20244;-58
2023/07/28 02:28:44;;;;;;;4.40;3.42;;;17.50;99.90;;;;;;5079841;28;20203;-58
2023/07/28 02:31:12;;;;;;;4.38;3.33;;;17.50;99.90;;;;;;5085193;28;20589;-58
2023/07/28 02:33:40;;;;;;;8.40;3.30;;;17.50;99.90;;;;;;5078211;28;20224;-58
2023/07/28 02:36:09;;;;;;;5.35;3.20;;;17.50;99.90;;;;;;5083921;28;20196;-59
2023/07/28 02:38:37;;;;;;;5.53;3.05;;;17.50;99.90;;;;;;5078848;28;20232;-58
2023/07/28 02:41:05;;;;;;;4.15;2.92;;;17.50;99.90;;;;;;5085063;28;20213;-58
2023/07/28 02:43:33;;;;;;;4.15;3.00;;;17.50;99.90;;;;;;5107737;22;20224;-61
2023/07/28 02:46:01;;;;;;;3.67;3.33;;;17.50;99.90;;;;;;5093151;28;20258;-61
2023/07/28 02:48:29;;;;;;;6.47;3.50;;;17.50;99.90;;;;;;5089848;28;20279;-61
2023/07/28 02:50:57;;;;;;;5.72;3.28;;;17.50;99.90;;;;;;5088872;28;20188;-61
2023/07/28 02:53:26;;;;;;;5.90;4.20;;;17.50;99.90;;;;;;5089848;28;20292;-61
2023/07/28 02:55:54;;;;;;;5.70;4.05;;;17.50;99.90;;;;;;5079823;28;20250;-61
2023/07/28 02:58:22;;;;;;;7.38;3.67;;;17.50;99.90;;;;;;5080281;28;20349;-58
2023/07/28 03:00:50;;;;;;;4.97;3.50;;;17.50;99.90;;;;;;5072750;28;20209;-58
2023/07/28 03:03:18;;;;;;;5.60;3.72;;;17.50;99.90;;;;;;5080143;28;20258;-59
2023/07/28 03:05:46;;;;;;;3.95;3.65;;;17.50;99.90;;;;;;5078393;28;20200;-60
2023/07/28 03:08:14;;;;;;;5.10;3.60;;;17.50;99.90;;;;;;5081745;28;20578;-58
2023/07/28 03:10:43;;;;;;;8.23;3.78;;;17.50;99.90;;;;;;5072627;28;20267;-58
2023/07/28 03:13:11;;;;;;;3.45;3.25;;;17.50;99.90;;;;;;5073428;28;20578;-59
2023/07/28 03:15:39;;;;;;;4.03;3.45;;;17.50;99.90;;;;;;5087169;28;20266;-58
2023/07/28 03:18:07;;;;;;;3.78;3.47;;;17.50;99.90;;;;;;5071029;28;20202;-59
2023/07/28 03:20:35;;;;;;;5.22;2.85;;;17.50;99.90;;;;;;5070801;28;20288;-59
2023/07/28 03:23:03;;;;;;;8.60;3.65;;;17.50;99.90;;;;;;5073471;28;20217;-58
2023/07/28 03:25:31;;;;;;;6.32;3.20;;;17.50;99.90;;;;;;5059676;28;20196;-59
2023/07/28 03:28:00;;;;;;;9.20;3.55;;;17.50;99.90;;;;;;5082919;28;20293;-59
2023/07/28 03:30:28;;;;;;;3.25;2.90;;;17.50;99.90;;;;;;5071736;28;20661;-58
2023/07/28 03:32:56;;;;;;;3.60;3.30;;;17.50;99.90;;;;;;5087917;28;20649;-59
2023/07/28 03:35:24;;;;;;;3.95;2.97;;;17.50;99.90;;;;;;5075231;28;20216;-59
2023/07/28 03:37:52;;;;;;;3.30;2.88;;;17.40;99.90;;;;;;5084787;28;20209;-58
2023/07/28 03:40:20;;;;;;;4.57;2.80;;;17.40;99.90;;;;;;5071909;28;20201;-59
2023/07/28 03:42:48;;;;;;;3.13;2.92;;;17.40;99.90;;;;;;5086082;28;20312;-58
2023/07/28 03:45:17;;;;;;;4.20;2.83;;;17.40;99.90;;;;;;5074865;28;20663;-59
2023/07/28 03:47:45;;;;;;;4.03;3.53;;;17.40;99.90;;;;;;5085154;28;20278;-59
2023/07/28 03:50:13;;;;;;;4.95;2.83;;;17.40;99.90;;;;;;5071543;28;20594;-59
2023/07/28 03:52:41;;;;;;;3.20;3.00;;;17.40;99.90;;;;;;5085441;28;20661;-57
2023/07/28 03:55:09;;;;;;;4.72;3.00;;;17.50;99.90;;;;;;5074896;28;20269;-59
2023/07/28 03:57:37;;;;;;;3.05;2.85;;;17.50;99.90;;;;;;5087285;28;20228;-59
2023/07/28 04:00:06;;;;;;;3.38;3.03;;;17.50;99.90;;;;;;5069249;28;20280;-59
2023/07/28 04:02:35;;;;;;;2.95;2.75;;;17.50;99.90;;;;;;5072645;28;20209;-59
2023/07/28 04:05:03;;;;;;;4.38;3.17;;;17.40;99.90;;;;;;5072428;28;20233;-59
2023/07/28 04:07:31;;;;;;;5.28;3.00;;;17.50;99.90;;;;;;5059428;28;20196;-59
2023/07/28 04:09:59;;;;;;;3.78;3.28;;;17.50;99.90;;;;;;5070433;28;20736;-59
2023/07/28 04:12:27;;;;;;;4.43;3.03;;;17.50;99.90;;;;;;5083430;28;20200;-59
2023/07/28 04:14:55;;;;;;;3.65;3.33;;;17.50;99.90;;;;;;5076123;28;20224;-59
2023/07/28 04:17:24;;;;;;;3.55;3.35;;;17.50;99.90;;;;;;5076674;28;20204;-59
2023/07/28 04:19:53;;;;;;;5.47;2.92;;;17.50;99.90;;;;;;5069610;28;20236;-60
2023/07/28 04:22:21;;;;;;;3.67;3.38;;;17.50;99.90;;;;;;5082219;28;20228;-59
2023/07/28 04:24:49;;;;;;;5.32;3.42;;;17.50;99.90;;;;;;5076232;28;20252;-59
2023/07/28 04:27:18;;;;;;;4.00;3.60;;;17.50;99.90;;;;;;5081298;28;20200;-60
2023/07/28 04:29:46;;;;;;;4.90;3.60;;;17.50;99.90;;;;;;5070772;28;20236;-59
2023/07/28 04:32:14;;;;;;;7.32;3.55;;;17.50;99.90;;;;;;5071419;28;20233;-59
2023/07/28 04:34:42;;;;;;;3.75;3.45;;;17.50;99.90;;;;;;5084767;28;20281;-59
2023/07/28 04:37:11;;;;;;;4.60;3.70;;;17.50;99.90;;;;;;5073838;28;20233;-59
2023/07/28 04:39:39;;;;;;;3.80;3.50;;;17.60;99.90;;;;;;5063019;28;20288;-59
2023/07/28 04:42:07;;;;;;;3.70;3.50;;;17.60;99.90;;;;;;5070994;28;20296;-58
2023/07/28 04:44:35;;;;;;;3.85;3.58;;;17.60;99.90;;;;;;5083329;28;20260;-59
2023/07/28 04:47:03;;;;;;;5.07;3.25;;;17.60;99.90;;;;;;5073418;28;20241;-59
2023/07/28 04:49:31;;;;;;;8.10;3.55;;;17.60;99.90;;;;;;5070951;28;20283;-59
2023/07/28 04:51:59;;;;;;;6.07;4.07;;;17.60;99.90;;;;;;5078626;28;20287;-59
2023/07/28 04:54:28;;;;;;;7.78;3.78;;;17.70;99.90;;;;;;5079287;28;20299;-59
2023/07/28 04:56:56;;;;;;;10.70;3.47;;;17.70;99.90;;;;;;5080165;28;20677;-59
2023/07/28 04:59:24;;;;;;;14.27;5.25;;;17.70;99.90;;;;;;5075217;28;20258;-60
2023/07/28 05:01:51;;;;;;;8.63;2.80;;;17.80;99.90;;;;;;5074813;28;20200;-58
2023/07/28 05:04:20;;;;;;;12.13;2.70;;;18.00;99.90;;;;;;5085156;28;20255;-60
2023/07/28 05:06:48;;;;;;;4.65;2.30;;;18.10;99.90;;;;;;5077921;28;20212;-59
2023/07/28 05:09:16;;;;;;;6.97;2.70;;;18.40;99.90;;;;;;5075483;28;20236;-60
2023/07/28 05:11:45;;;;;;;2.63;2.42;;;18.50;99.90;;;;;;5074540;28;20254;-56
2023/07/28 05:14:15;;;;;;;2.80;2.30;;;18.60;99.90;;;;;;5084429;28;20614;-58
2023/07/28 05:16:43;;;;;;;2.58;2.38;;;18.70;99.90;;;;;;5079259;28;20213;-57
2023/07/28 05:19:11;;;;;;;3.88;2.47;;;18.80;99.90;;;;;;5074388;28;20546;-57
2023/07/28 05:21:39;;;;;;;3.10;2.53;;;18.80;99.90;;;;;;5064780;28;20250;-57
2023/07/28 05:24:07;;;;;;;2.03;1.90;;;18.90;99.90;;;;;;5085581;28;20225;-57
2023/07/28 05:26:35;;;;;;;3.97;2.50;;;18.90;99.90;;;;;;5087098;28;20284;-57
2023/07/28 05:29:04;;;;;;;2.78;2.53;;;18.90;99.90;;;;;;5074678;28;20660;-58
2023/07/28 05:31:32;;;;;;;2.17;2.08;;;18.90;99.90;;;;;;5072821;28;20209;-55
2023/07/28 05:34:00;;;;;;;2.42;2.13;;;18.90;99.90;;;;;;5073202;28;20666;-55
2023/07/28 05:36:29;;;;;;;6.47;2.22;;;18.80;99.90;;;;;;5085864;28;20201;-55
2023/07/28 05:38:58;;;;;;;1.88;1.70;;;18.80;99.90;;;;;;5075773;28;20634;-59
2023/07/28 05:41:26;;;;;;;1.65;1.55;;;18.70;99.90;;;;;;5073965;28;20664;-56
2023/07/28 05:43:54;;;;;;;2.22;1.92;;;18.70;99.90;;;;;;5080922;28;20296;-55
2023/07/28 05:46:23;;;;;;;2.92;1.75;;;18.70;99.90;;;;;;5083298;28;20232;-55
2023/07/28 05:48:51;;;;;;;2.45;1.90;;;18.70;99.90;;;;;;5073543;28;20216;-65
2023/07/28 05:51:19;;;;;;;3.47;1.90;;;18.70;99.90;;;;;;5073996;28;20201;-58
2023/07/28 05:53:47;;;;;;;5.47;1.90;;;18.70;99.90;;;;;;5080081;28;20650;-59
2023/07/28 05:56:15;;;;;;;5.00;2.20;;;18.80;99.90;;;;;;5083633;28;20297;-55
2023/07/28 05:58:43;;;;;;;4.40;2.28;;;18.90;99.90;;;;;;5073206;28;20247;-55
2023/07/28 06:01:11;;;;;;;7.13;3.22;;;19.00;99.90;;;;;;5075926;28;20201;-55
2023/07/28 06:03:40;;;;;;;2.92;2.10;;;19.10;99.90;;;;;;5089189;28;20221;-55
2023/07/28 06:06:12;;;;;;;3.67;2.20;;;19.20;99.90;;;;;;5082972;28;20216;-56
2023/07/28 06:08:40;;;;;;;4.88;1.70;;;19.20;99.90;;;;;;5077180;28;20209;-57
2023/07/28 06:11:08;;;;;;;2.40;2.22;;;19.30;99.90;;;;;;5074269;28;20258;-57
2023/07/28 06:13:36;;;;;;;3.05;1.65;;;19.40;99.90;;;;;;5089306;28;20252;-59
2023/07/28 06:16:04;;;;;;;4.22;1.90;;;19.40;99.90;;;;;;5081743;28;20285;-55
2023/07/28 06:18:32;;;;;;;3.80;2.20;;;19.50;99.90;;;;;;5079922;28;20217;-55
2023/07/28 06:21:01;;;;;;;3.00;1.73;;;19.50;99.90;;;;;;5074516;28;20664;-55
2023/07/28 06:23:29;;;;;;;4.97;1.80;;;19.50;99.90;;;;;;5060364;28;20212;-61
2023/07/28 06:25:57;;;;;;;2.10;2.00;;;19.50;99.90;;;;;;5085542;28;20256;-61
2023/07/28 06:28:25;;;;;;;1.83;1.67;;;19.40;99.90;;;;;;5072960;28;20207;-61
2023/07/28 06:30:54;;;;;;;1.30;1.27;;;19.40;99.90;;;;;;5073101;28;20203;-61
2023/07/28 06:33:22;;;;;;;2.55;1.88;;;19.40;99.90;;;;;;5089975;28;20226;-61
2023/07/28 06:35:51;;;;;;;1.75;1.65;;;19.30;99.90;;;;;;5079313;28;20214;-60
2023/07/28 06:38:20;;;;;;;1.77;1.77;;;19.30;99.90;;;;;;5081938;28;20686;-60
2023/07/28 06:40:48;;;;;;;1.50;1.40;;;19.30;99.90;;;;;;5071547;28;20292;-60
2023/07/28 06:43:15;;;;;;;4.65;1.50;;;19.20;99.90;;;;;;5088466;28;20238;-61
2023/07/28 06:45:43;;;;;;;1.70;1.00;;;19.20;99.90;;;;;;5078216;28;20248;-60
2023/07/28 06:48:11;;;;;;;2.67;1.23;;;19.20;99.90;;;;;;5083682;28;20201;-61
2023/07/28 06:50:39;;;;;;;1.88;1.35;;;19.20;99.90;;;;;;5086191;28;20265;-60
2023/07/28 06:53:07;;;;;;;3.70;1.10;;;19.20;99.90;;;;;;5076623;28;20220;-60
2023/07/28 06:55:38;;;;;;;2.22;1.10;;;19.30;99.90;;;;;;5092850;28;20250;-60
2023/07/28 06:58:06;;;;;;;2.60;1.73;;;19.40;99.90;;;;;;5093186;28;20219;-61
2023/07/28 07:00:34;;;;;;;2.13;1.70;;;19.50;99.90;;;;;;5080166;28;20243;-61
2023/07/28 07:03:02;;;;;;;0.90;0.90;;;19.60;99.90;;;;;;5089269;28;20645;-61
2023/07/28 07:05:30;;;;;;;2.72;0.93;;;19.70;99.90;;;;;;5059670;28;20576;-60
2023/07/28 07:07:58;;;;;;;1.00;0.90;;;19.80;99.90;;;;;;5085248;28;20223;-60
2023/07/28 07:10:26;;;;;;;2.50;0.90;;;19.90;99.90;;;;;;5084318;28;20231;-60
2023/07/28 07:12:56;;;;;;;1.00;0.73;;;20.00;99.90;;;;;;5092804;28;20232;-60
2023/07/28 07:15:24;;;;;;;1.08;0.98;;;20.10;99.90;;;;;;5072643;28;20591;-60
2023/07/28 07:17:52;;;;;;;3.50;0.80;;;20.20;99.90;;;;;;5075916;28;20201;-61
2023/07/28 07:20:20;;;;;;;1.85;0.93;;;20.10;99.90;;;;;;5082437;28;20686;-61
2023/07/28 07:22:48;;;;;;;1.10;1.10;;;20.00;99.90;;;;;;5077809;28;20754;-61
2023/07/28 07:25:16;;;;;;;4.15;0.80;;;20.00;99.90;;;;;;5088803;28;20232;-61
2023/07/28 07:27:45;;;;;;;3.10;0.90;;;19.90;99.90;;;;;;5077937;28;20295;-60
2023/07/28 07:30:14;;;;;;;3.50;0.88;;;19.90;99.90;;;;;;5082849;28;20209;-60
2023/07/28 07:32:42;;;;;;;1.23;0.60;;;19.90;99.90;;;;;;5085926;28;20220;-61
2023/07/28 07:35:10;;;;;;;1.27;0.40;;;19.90;99.90;;;;;;5075386;28;20215;-61
2023/07/28 07:37:38;;;;;;;0.40;0.40;;;19.90;99.90;;;;;;5087372;28;20943;-60
2023/07/28 07:40:07;;;;;;;0.45;0.45;;;19.90;99.90;;;;;;5080797;28;20283;-61
2023/07/28 07:42:42;;;;;;;0.43;0.43;;;20.00;99.90;;;;;;5079059;28;20208;-61
2023/07/28 07:45:11;;;;;;;1.05;0.40;;;20.00;99.90;;;;;;5088440;28;20281;-60
2023/07/28 07:47:41;;;;;;;0.38;0.38;;;20.00;99.90;;;;;;5077235;28;20262;-61
2023/07/28 07:50:09;;;;;;;2.38;0.45;;;20.00;99.90;;;;;;5082870;28;20624;-61
2023/07/28 07:52:37;;;;;;;0.80;0.40;;;19.90;99.90;;;;;;5084889;28;20667;-60
2023/07/28 07:55:10;;;;;;;1.55;0.50;;;19.90;99.90;;;;;;5074766;28;20200;-61
2023/07/28 07:57:37;;;;;;;1.45;0.60;;;19.90;99.90;;;;;;5087288;28;20288;-61
2023/07/28 08:00:06;;;;;;;0.30;0.30;;;19.80;99.90;;;;;;5080428;28;20227;-60
2023/07/28 08:02:34;;;;;;;1.95;0.30;;;19.80;99.90;;;;;;5079226;28;20664;-61
2023/07/28 08:05:04;;;;;;;0.40;0.40;;;19.80;99.90;;;;;;5088071;28;20200;-61
2023/07/28 08:07:32;;;;;;;1.25;0.50;;;19.80;99.90;;;;;;5059718;28;20253;-61
2023/07/28 08:10:00;;;;;;;3.25;0.40;;;19.90;99.90;;;;;;5083994;28;20223;-61
2023/07/28 08:12:28;;;;;;;2.25;0.57;;;19.90;99.90;;;;;;5083542;28;20196;-60
2023/07/28 08:14:56;;;;;;;2.17;0.63;;;20.00;99.90;;;;;;5075699;28;20573;-61
2023/07/28 08:17:24;;;;;;;1.55;0.40;;;20.10;99.90;;;;;;5088318;28;20251;-60
2023/07/28 08:19:52;;;;;;;0.40;0.40;;;20.10;99.90;;;;;;5071593;28;20193;-61
2023/07/28 08:22:22;;;;;;;1.05;0.60;;;20.10;99.90;;;;;;5082518;28;20196;-61
2023/07/28 08:24:50;;;;;;;1.38;0.30;;;20.20;99.90;;;;;;5076411;28;20569;-60
2023/07/28 08:27:18;;;;;;;0.95;0.40;;;20.20;99.90;;;;;;5088274;28;20313;-60
2023/07/28 08:29:46;;;;;;;1.45;0.30;;;20.30;99.90;;;;;;5077492;28;20348;-60
2023/07/28 08:32:14;;;;;;;0.40;0.40;;;20.40;99.90;;;;;;5083565;28;20262;-61
2023/07/28 08:34:42;;;;;;;0.85;0.40;;;20.40;99.90;;;;;;5089186;28;20270;-60
2023/07/28 08:37:09;;;;;;;1.50;0.30;;;20.40;99.90;;;;;;5079237;28;20224;-61
2023/07/28 08:39:39;;;;;;;2.95;0.30;;;20.50;99.90;;;;;;5090945;28;20234;-61
2023/07/28 08:42:07;;;;;;;1.52;0.47;;;20.40;99.90;;;;;;5084492;28;20228;-61
2023/07/28 08:44:35;;;;;;;3.28;0.40;;;20.50;99.90;;;;;;5082732;28;20260;-61
2023/07/28 08:47:05;;;;;;;2.17;0.38;;;20.50;99.90;;;;;;5075325;28;20256;-61
2023/07/28 08:49:35;;;;;;;1.42;0.40;;;20.60;99.90;;;;;;5091454;28;20253;-61
2023/07/28 08:52:03;;;;;;;0.45;0.40;;;20.70;99.90;;;;;;5083857;28;20215;-60
2023/07/28 08:54:31;;;;;;;1.55;0.32;;;20.80;99.90;;;;;;5082933;28;20632;-61
2023/07/28 08:57:01;;;;;;;1.75;0.50;;;21.00;99.90;;;;;;5075070;28;20235;-61
2023/07/28 08:59:29;;;;;;;0.30;0.30;;;21.00;99.90;;;;;;5078431;28;20204;-61
2023/07/28 09:01:59;;;;;;;2.00;0.50;;;21.10;99.90;;;;;;5087736;28;20283;-61
2023/07/28 09:04:27;;;;;;;0.40;0.40;;;21.20;99.90;;;;;;5086687;28;20224;-61
2023/07/28 09:06:55;;;;;;;0.40;0.40;;;21.30;99.90;;;;;;5079656;28;20302;-60
2023/07/28 09:09:23;;;;;;;1.73;0.47;;;21.40;99.90;;;;;;5091379;28;20200;-61
2023/07/28 09:11:52;;;;;;;0.30;0.30;;;21.30;99.90;;;;;;5081651;28;20307;-61
2023/07/28 09:14:23;;;;;;;1.30;0.47;;;21.30;99.90;;;;;;5084111;28;20270;-60
2023/07/28 09:16:51;;;;;;;0.85;0.40;;;21.30;99.90;;;;;;5089874;28;20257;-60
2023/07/28 09:19:20;;;;;;;0.40;0.40;;;21.40;99.90;;;;;;5075830;28;20649;-61
2023/07/28 09:21:58;;;;;;;3.60;0.38;;;21.50;99.90;;;;;;5080914;28;20200;-60
2023/07/28 09:24:31;;;;;;;0.30;0.30;;;21.90;99.90;;;;;;5082937;28;20262;-61
2023/07/28 09:26:59;;;;;;;0.40;0.40;;;22.20;99.90;;;;;;5090532;28;20262;-61
2023/07/28 09:29:28;;;;;;;1.55;0.30;;;22.40;99.90;;;;;;5078079;28;20320;-61
2023/07/28 09:32:04;;;;;;;0.40;0.40;;;22.60;99.90;;;;;;5094994;28;20273;-61
2023/07/28 09:34:32;;;;;;;0.40;0.40;;;22.60;99.90;;;;;;5082010;28;20301;-60
2023/07/28 09:37:00;;;;;;;1.25;0.40;;;22.60;99.90;;;;;;5090407;28;20199;-61
2023/07/28 09:39:28;;;;;;;1.45;0.50;;;22.60;99.90;;;;;;5061358;28;20203;-61
2023/07/28 09:41:58;;;;;;;1.08;0.38;;;22.50;99.90;;;;;;5087100;28;20205;-61
2023/07/28 09:44:27;;;;;;;0.40;0.40;;;22.40;99.90;;;;;;5084724;28;20327;-60
2023/07/28 09:46:56;;;;;;;0.40;0.40;;;22.30;99.90;;;;;;5078674;28;20256;-61
2023/07/28 09:49:36;;;;;;;0.50;0.50;;;22.10;99.90;;;;;;5090689;28;20207;-60
2023/07/28 09:52:05;;;;;;;0.30;0.30;;;22.00;99.90;;;;;;5082824;28;20204;-61
2023/07/28 09:54:35;;;;;;;2.80;0.40;;;21.90;99.90;;;;;;5081564;28;20224;-61
2023/07/28 09:57:04;;;;;;;1.55;0.50;;;21.80;99.90;;;;;;5091005;28;20192;-61
2023/07/28 09:59:36;;;;;;;0.40;0.40;;;21.80;99.90;;;;;;5061891;28;20573;-61
2023/07/28 10:02:04;;;;;;;0.50;0.50;;;21.80;99.90;;;;;;5085631;28;20239;-61
2023/07/28 10:04:32;;;;;;;0.50;0.50;;;21.80;99.90;;;;;;5086301;28;20593;-61
2023/07/28 10:06:59;;;;;;;2.63;0.40;;;21.80;99.90;;;;;;5077514;28;20572;-61
2023/07/28 10:09:28;;;;;;;0.30;0.30;;;21.80;99.90;;;;;;5090299;28;20250;-61
2023/07/28 10:11:56;;;;;;;4.05;0.50;;;21.90;99.90;;;;;;5081274;28;20681;-61
2023/07/28 10:14:28;;;;;;;1.10;0.32;;;21.90;99.90;;;;;;5082419;28;20271;-60
2023/07/28 10:16:57;;;;;;;2.50;0.60;;;21.90;99.90;;;;;;5089655;28;20204;-61
2023/07/28 10:19:25;;;;;;;0.50;0.50;;;21.90;99.90;;;;;;5090860;28;20262;-61
2023/07/28 10:22:00;;;;;;;1.38;0.32;;;21.90;99.90;;;;;;5080794;28;20262;-61
2023/07/28 10:24:50;;;;;;;1.13;0.47;;;22.00;99.90;;;;;;5081726;28;20298;-61
2023/07/28 10:27:29;;;;;;;0.73;0.38;;;21.90;99.90;;;;;;5090343;28;20263;-60
2023/07/28 10:29:58;;;;;;;1.77;0.50;;;21.90;99.90;;;;;;5080922;28;20655;-60
2023/07/28 10:32:32;;;;;;;2.38;0.40;;;21.80;99.90;;;;;;5082060;28;20204;-61
2023/07/28 10:35:00;;;;;;;1.98;0.40;;;21.70;99.90;;;;;;5088993;28;20204;-60
2023/07/28 10:37:28;;;;;;;1.58;0.60;;;21.80;99.90;;;;;;5076572;28;20192;-61
2023/07/28 10:40:24;;;;;;;2.33;0.70;;;21.80;99.90;;;;;;5086205;28;20235;-61
2023/07/28 10:42:52;;;;;;;0.40;0.40;;;21.90;99.90;;;;;;5070408;28;20239;-60
2023/07/28 10:45:20;;;;;;;0.50;0.45;;;22.10;99.90;;;;;;5076389;28;20931;-63
2023/07/28 10:47:49;;;;;;;1.27;0.50;;;22.30;99.90;;;;;;5086887;28;20224;-63
2023/07/28 10:50:18;;;;;;;2.92;0.77;;;22.40;99.90;;;;;;5083245;28;20261;-63
2023/07/28 10:52:47;;;;;;;1.65;0.77;;;22.50;99.90;;;;;;5093244;28;20228;-63
2023/07/28 10:55:16;;;;;;;2.00;0.73;;;22.40;99.90;;;;;;5074978;28;20325;-60
2023/07/28 10:57:44;;;;;;;1.35;0.73;;;22.30;99.90;;;;;;5087419;28;20210;-61
2023/07/28 11:00:13;;;;;;;0.40;0.40;;;22.20;99.90;;;;;;5082279;28;20228;-60
2023/07/28 11:02:43;;;;;;;1.42;0.77;;;22.20;99.90;;;;;;5079564;28;20236;-61
2023/07/28 11:05:15;;;;;;;1.73;0.60;;;22.10;99.90;;;;;;5090426;28;20217;-61
2023/07/28 11:07:43;;;;;;;4.47;0.70;;;22.00;99.90;;;;;;5087397;28;20295;-61
2023/07/28 11:10:12;;;;;;;1.08;0.70;;;21.90;99.90;;;;;;5082148;28;20283;-60
2023/07/28 11:12:42;;;;;;;1.17;0.63;;;21.90;99.90;;;;;;5092804;28;20207;-61
2023/07/28 11:15:11;;;;;;;1.35;0.40;;;21.80;99.90;;;;;;5078150;28;21406;-61
2023/07/28 11:17:39;;;;;;;3.30;0.70;;;21.80;99.90;;;;;;5074080;28;20205;-57
2023/07/28 11:20:17;;;;;;;0.80;0.80;;;21.80;99.90;;;;;;5069507;28;20208;-58
2023/07/28 11:22:45;;;;;;;2.22;0.70;;;21.80;99.90;;;;;;5069973;28;20857;-56
2023/07/28 11:25:13;;;;;;;1.60;0.90;;;21.80;99.90;;;;;;5071973;28;20295;-57
2023/07/28 11:27:41;;;;;;;1.85;0.93;;;21.90;99.90;;;;;;5066938;28;20259;-56
2023/07/28 11:30:10;;;;;;;1.40;1.30;;;22.00;99.90;;;;;;5072028;28;20288;-56
2023/07/28 11:32:38;;;;;;;1.95;1.05;;;22.10;99.90;;;;;;5072119;28;20287;-56
2023/07/28 11:35:08;;;;;;;1.08;1.08;;;22.20;99.90;;;;;;5088294;28;20720;-57
2023/07/28 11:37:38;;;;;;;1.30;1.30;;;22.20;99.90;;;;;;5076289;28;20257;-60
2023/07/28 11:40:07;;;;;;;1.30;1.30;;;22.20;99.90;;;;;;5072359;28;20287;-58
2023/07/28 11:42:35;;;;;;;1.65;1.40;;;22.30;99.90;;;;;;5071816;28;20283;-61
2023/07/28 11:45:03;;;;;;;1.45;1.45;;;22.30;99.90;;;;;;5088362;28;20204;-62
2023/07/28 11:47:31;;;;;;;4.00;1.80;;;22.30;99.90;;;;;;5059700;28;20748;-59
2023/07/28 11:50:00;;;;;;;2.78;1.67;;;22.40;99.90;;;;;;5083943;28;20219;-61
2023/07/28 11:52:31;;;;;;;2.47;1.67;;;22.40;99.90;;;;;;5083271;28;20290;-59
2023/07/28 11:55:00;;;;;;;1.88;1.77;;;22.40;99.90;;;;;;5075485;28;20200;-62
2023/07/28 11:57:30;;;;;;;2.70;1.70;;;22.40;99.90;;;;;;5075392;28;20282;-59
2023/07/28 11:59:58;;;;;;;1.88;1.67;;;22.50;99.90;;;;;;5084060;28;20661;-58
2023/07/28 12:02:26;;;;;;;1.90;1.80;;;22.50;99.90;;;;;;5083286;28;20249;-61
2023/07/28 12:04:56;;;;;;;1.75;1.70;;;22.40;99.90;;;;;;5075577;28;20569;-58
2023/07/28 12:07:31;;;;;;;2.03;2.00;;;22.40;99.90;;;;;;5088035;28;20247;-62
2023/07/28 12:10:06;;;;;;;1.85;1.80;;;22.30;99.90;;;;;;5079322;28;20236;-62
2023/07/28 12:12:40;;;;;;;1.85;1.83;;;22.30;99.90;;;;;;5079200;28;20286;-62
2023/07/28 12:15:21;;;;;;;2.42;2.20;;;22.20;99.90;;;;;;5080509;28;20243;-61
2023/07/28 12:18:08;;;;;;;2.35;1.95;;;22.10;99.90;;;;;;5065423;28;20287;-62
2023/07/28 12:20:39;;;;;;;1.88;1.88;;;22.00;99.90;;;;;;5065758;28;20255;-63
2023/07/28 12:23:08;;;;;;;2.40;1.95;;;22.00;99.90;;;;;;5069188;28;20693;-61
2023/07/28 12:25:40;;;;;;;2.00;1.90;;;22.00;99.90;;;;;;5068667;28;20745;-61
2023/07/28 12:28:08;;;;;;;2.17;1.90;;;22.00;99.90;;;;;;5071264;28;20258;-62
2023/07/28 12:30:48;;;;;;;2.20;2.00;;;22.10;99.90;;;;;;5066690;28;20250;-61
2023/07/28 12:33:17;;;;;;;1.88;1.77;;;22.10;99.90;;;;;;5087803;28;20233;-62
2023/07/28 12:35:48;;;;;;;1.55;1.45;;;22.20;99.90;;;;;;5077083;28;20627;-62
2023/07/28 12:38:18;;;;;;;2.40;2.25;;;22.30;99.90;;;;;;5080419;28;20201;-61
2023/07/28 12:40:50;;;;;;;1.52;1.52;;;22.50;99.90;;;;;;5084356;28;20242;-62
2023/07/28 12:43:20;;;;;;;3.13;1.55;;;22.60;99.90;;;;;;5074745;28;20316;-62
2023/07/28 12:45:52;;;;;;;2.50;1.60;;;22.70;99.90;;;;;;5084055;28;20235;-62
2023/07/28 12:48:23;;;;;;;1.30;1.30;;;22.80;99.90;;;;;;5080861;28;20318;-63
2023/07/28 12:50:51;;;;;;;2.85;1.02;;;22.90;99.90;;;;;;5075307;28;20258;-62
2023/07/28 12:53:30;;;;;;;1.00;0.75;;;22.90;99.90;;;;;;5058894;28;20219;-62